sensor_id;sensor_type;location;lat;lon;timestamp;P1;durP1;ratioP1;P2;durP2;ratioP2
79574;SDS011;69044;48.198;11.468;2024-03-25T00:01:55;3.10;;;1.63;;
79574;SDS011;69044;48.198;11.468;2024-03-25T00:04:24;4.13;;;1.75;;
79574;SDS011;69044;48.198;11.468;2024-03-25T00:06:50;3.80;;;1.60;;
79574;SDS011;69044;48.198;11.468;2024-03-25T00:09:18;2.58;;;1.60;;
79574;SDS011;69044;48.198;11.468;2024-03-25T00:11:47;3.35;;;1.60;;
79574;SDS011;69044;48.198;11.468;2024-03-25T00:14:14;3.53;;;1.60;;
79574;SDS011;69044;48.198;11.468;2024-03-25T00:16:41;3.00;;;1.77;;
79574;SDS011;69044;48.198;11.468;2024-03-25T00:19:08;3.72;;;1.60;;
79574;SDS011;69044;48.198;11.468;2024-03-25T00:21:34;3.70;;;1.70;;
79574;SDS011;69044;48.198;11.468;2024-03-25T00:24:01;3.00;;;1.48;;
79574;SDS011;69044;48.198;11.468;2024-03-25T00:26:27;3.20;;;1.80;;
79574;SDS011;69044;48.198;11.468;2024-03-25T00:28:56;3.20;;;1.52;;
79574;SDS011;69044;48.198;11.468;2024-03-25T00:31:22;2.47;;;1.40;;
79574;SDS011;69044;48.198;11.468;2024-03-25T00:33:50;2.83;;;1.70;;
79574;SDS011;69044;48.198;11.468;2024-03-25T00:36:16;4.85;;;1.73;;
79574;SDS011;69044;48.198;11.468;2024-03-25T00:38:43;4.50;;;1.80;;
79574;SDS011;69044;48.198;11.468;2024-03-25T00:41:09;2.08;;;1.40;;
79574;SDS011;69044;48.198;11.468;2024-03-25T00:43:37;2.75;;;1.90;;
79574;SDS011;69044;48.198;11.468;2024-03-25T00:46:04;2.78;;;1.58;;
79574;SDS011;69044;48.198;11.468;2024-03-25T00:48:31;2.40;;;1.40;;
79574;SDS011;69044;48.198;11.468;2024-03-25T00:50:58;3.75;;;1.50;;
79574;SDS011;69044;48.198;11.468;2024-03-25T00:53:25;2.88;;;1.55;;
79574;SDS011;69044;48.198;11.468;2024-03-25T00:55:51;3.90;;;1.65;;
79574;SDS011;69044;48.198;11.468;2024-03-25T00:58:18;2.78;;;1.42;;
79574;SDS011;69044;48.198;11.468;2024-03-25T01:00:44;3.15;;;1.42;;
79574;SDS011;69044;48.198;11.468;2024-03-25T01:03:13;3.33;;;1.90;;
79574;SDS011;69044;48.198;11.468;2024-03-25T01:05:39;3.00;;;1.33;;
79574;SDS011;69044;48.198;11.468;2024-03-25T01:08:06;3.80;;;1.85;;
79574;SDS011;69044;48.198;11.468;2024-03-25T01:10:36;2.83;;;1.50;;
79574;SDS011;69044;48.198;11.468;2024-03-25T01:13:03;3.25;;;1.80;;
79574;SDS011;69044;48.198;11.468;2024-03-25T01:15:29;2.97;;;1.60;;
79574;SDS011;69044;48.198;11.468;2024-03-25T01:17:57;4.40;;;1.45;;
79574;SDS011;69044;48.198;11.468;2024-03-25T01:20:24;3.45;;;1.38;;
79574;SDS011;69044;48.198;11.468;2024-03-25T01:22:52;1.95;;;1.25;;
79574;SDS011;69044;48.198;11.468;2024-03-25T01:25:18;3.00;;;1.40;;
79574;SDS011;69044;48.198;11.468;2024-03-25T01:27:45;2.75;;;1.70;;
79574;SDS011;69044;48.198;11.468;2024-03-25T01:30:12;2.78;;;1.42;;
79574;SDS011;69044;48.198;11.468;2024-03-25T01:32:40;2.30;;;1.40;;
79574;SDS011;69044;48.198;11.468;2024-03-25T01:35:06;3.70;;;1.55;;
79574;SDS011;69044;48.198;11.468;2024-03-25T01:37:36;2.55;;;1.50;;
79574;SDS011;69044;48.198;11.468;2024-03-25T01:40:02;2.70;;;1.35;;
79574;SDS011;69044;48.198;11.468;2024-03-25T01:42:30;2.92;;;1.40;;
79574;SDS011;69044;48.198;11.468;2024-03-25T01:44:56;3.17;;;1.42;;
79574;SDS011;69044;48.198;11.468;2024-03-25T01:47:24;3.70;;;1.67;;
79574;SDS011;69044;48.198;11.468;2024-03-25T01:49:50;4.65;;;1.70;;
79574;SDS011;69044;48.198;11.468;2024-03-25T01:52:21;3.85;;;1.77;;
79574;SDS011;69044;48.198;11.468;2024-03-25T01:54:52;3.55;;;1.75;;
79574;SDS011;69044;48.198;11.468;2024-03-25T01:57:19;2.38;;;1.42;;
79574;SDS011;69044;48.198;11.468;2024-03-25T01:59:45;2.75;;;1.50;;
79574;SDS011;69044;48.198;11.468;2024-03-25T02:02:13;2.58;;;1.67;;
79574;SDS011;69044;48.198;11.468;2024-03-25T02:04:39;4.20;;;1.80;;
79574;SDS011;69044;48.198;11.468;2024-03-25T02:07:07;2.20;;;1.45;;
79574;SDS011;69044;48.198;11.468;2024-03-25T02:09:33;3.90;;;1.70;;
79574;SDS011;69044;48.198;11.468;2024-03-25T02:12:02;4.88;;;1.92;;
79574;SDS011;69044;48.198;11.468;2024-03-25T02:14:28;3.80;;;1.60;;
79574;SDS011;69044;48.198;11.468;2024-03-25T02:16:55;2.60;;;1.60;;
79574;SDS011;69044;48.198;11.468;2024-03-25T02:19:21;3.28;;;1.70;;
79574;SDS011;69044;48.198;11.468;2024-03-25T02:21:50;2.58;;;1.60;;
79574;SDS011;69044;48.198;11.468;2024-03-25T02:24:16;6.60;;;2.00;;
79574;SDS011;69044;48.198;11.468;2024-03-25T02:26:45;3.13;;;1.80;;
79574;SDS011;69044;48.198;11.468;2024-03-25T02:29:11;4.75;;;2.20;;
79574;SDS011;69044;48.198;11.468;2024-03-25T02:31:38;4.05;;;1.70;;
79574;SDS011;69044;48.198;11.468;2024-03-25T02:34:05;3.20;;;1.80;;
79574;SDS011;69044;48.198;11.468;2024-03-25T02:36:32;3.13;;;1.50;;
79574;SDS011;69044;48.198;11.468;2024-03-25T02:38:58;2.90;;;1.52;;
79574;SDS011;69044;48.198;11.468;2024-03-25T02:41:26;3.60;;;1.90;;
79574;SDS011;69044;48.198;11.468;2024-03-25T02:43:57;2.95;;;1.65;;
79574;SDS011;69044;48.198;11.468;2024-03-25T02:46:24;3.88;;;1.90;;
79574;SDS011;69044;48.198;11.468;2024-03-25T02:48:50;4.25;;;1.60;;
79574;SDS011;69044;48.198;11.468;2024-03-25T02:51:17;2.28;;;1.50;;
79574;SDS011;69044;48.198;11.468;2024-03-25T02:53:43;3.90;;;1.73;;
79574;SDS011;69044;48.198;11.468;2024-03-25T02:56:11;3.50;;;1.73;;
79574;SDS011;69044;48.198;11.468;2024-03-25T02:58:37;3.65;;;1.70;;
79574;SDS011;69044;48.198;11.468;2024-03-25T03:01:05;3.28;;;1.77;;
79574;SDS011;69044;48.198;11.468;2024-03-25T03:03:31;4.60;;;1.90;;
79574;SDS011;69044;48.198;11.468;2024-03-25T03:05:58;3.70;;;1.83;;
79574;SDS011;69044;48.198;11.468;2024-03-25T03:08:25;3.45;;;1.50;;
79574;SDS011;69044;48.198;11.468;2024-03-25T03:10:52;3.63;;;1.70;;
79574;SDS011;69044;48.198;11.468;2024-03-25T03:13:18;2.35;;;1.50;;
79574;SDS011;69044;48.198;11.468;2024-03-25T03:15:45;3.38;;;1.65;;
79574;SDS011;69044;48.198;11.468;2024-03-25T03:18:12;4.60;;;2.00;;
79574;SDS011;69044;48.198;11.468;2024-03-25T03:20:39;3.97;;;1.70;;
79574;SDS011;69044;48.198;11.468;2024-03-25T03:23:06;2.50;;;1.60;;
79574;SDS011;69044;48.198;11.468;2024-03-25T03:25:33;3.90;;;1.73;;
79574;SDS011;69044;48.198;11.468;2024-03-25T03:28:00;3.50;;;1.60;;
79574;SDS011;69044;48.198;11.468;2024-03-25T03:30:28;2.80;;;1.88;;
79574;SDS011;69044;48.198;11.468;2024-03-25T03:32:54;4.45;;;1.70;;
79574;SDS011;69044;48.198;11.468;2024-03-25T03:35:22;3.72;;;1.75;;
79574;SDS011;69044;48.198;11.468;2024-03-25T03:37:48;3.80;;;2.13;;
79574;SDS011;69044;48.198;11.468;2024-03-25T03:40:16;4.07;;;1.83;;
79574;SDS011;69044;48.198;11.468;2024-03-25T03:42:42;3.67;;;1.95;;
79574;SDS011;69044;48.198;11.468;2024-03-25T03:45:09;4.43;;;1.85;;
79574;SDS011;69044;48.198;11.468;2024-03-25T03:47:35;3.78;;;1.67;;
79574;SDS011;69044;48.198;11.468;2024-03-25T03:50:02;2.83;;;1.60;;
79574;SDS011;69044;48.198;11.468;2024-03-25T03:52:30;4.55;;;1.70;;
79574;SDS011;69044;48.198;11.468;2024-03-25T03:54:57;4.22;;;1.77;;
79574;SDS011;69044;48.198;11.468;2024-03-25T03:57:23;3.10;;;1.60;;
79574;SDS011;69044;48.198;11.468;2024-03-25T03:59:51;5.30;;;2.13;;
79574;SDS011;69044;48.198;11.468;2024-03-25T04:02:17;3.38;;;1.60;;
79574;SDS011;69044;48.198;11.468;2024-03-25T04:04:44;4.18;;;1.77;;
79574;SDS011;69044;48.198;11.468;2024-03-25T04:07:10;2.78;;;1.67;;
79574;SDS011;69044;48.198;11.468;2024-03-25T04:09:39;7.18;;;2.05;;
79574;SDS011;69044;48.198;11.468;2024-03-25T04:12:05;5.18;;;2.00;;
79574;SDS011;69044;48.198;11.468;2024-03-25T04:14:32;3.58;;;2.00;;
79574;SDS011;69044;48.198;11.468;2024-03-25T04:16:59;3.88;;;1.80;;
79574;SDS011;69044;48.198;11.468;2024-03-25T04:19:26;3.65;;;1.80;;
79574;SDS011;69044;48.198;11.468;2024-03-25T04:21:52;4.45;;;2.20;;
79574;SDS011;69044;48.198;11.468;2024-03-25T04:24:20;2.45;;;1.55;;
79574;SDS011;69044;48.198;11.468;2024-03-25T04:26:47;3.20;;;1.80;;
79574;SDS011;69044;48.198;11.468;2024-03-25T04:29:14;3.15;;;1.83;;
79574;SDS011;69044;48.198;11.468;2024-03-25T04:31:42;4.38;;;1.80;;
79574;SDS011;69044;48.198;11.468;2024-03-25T04:34:08;3.60;;;1.88;;
79574;SDS011;69044;48.198;11.468;2024-03-25T04:36:36;3.33;;;1.85;;
79574;SDS011;69044;48.198;11.468;2024-03-25T04:39:02;2.85;;;1.60;;
79574;SDS011;69044;48.198;11.468;2024-03-25T04:41:28;3.30;;;1.73;;
79574;SDS011;69044;48.198;11.468;2024-03-25T04:43:56;3.40;;;1.90;;
79574;SDS011;69044;48.198;11.468;2024-03-25T04:46:22;3.55;;;1.77;;
79574;SDS011;69044;48.198;11.468;2024-03-25T04:48:49;2.60;;;1.80;;
79574;SDS011;69044;48.198;11.468;2024-03-25T04:51:15;3.60;;;1.83;;
79574;SDS011;69044;48.198;11.468;2024-03-25T04:53:41;5.03;;;2.30;;
79574;SDS011;69044;48.198;11.468;2024-03-25T04:56:07;4.00;;;1.77;;
79574;SDS011;69044;48.198;11.468;2024-03-25T04:58:34;3.75;;;2.08;;
79574;SDS011;69044;48.198;11.468;2024-03-25T05:01:01;3.60;;;1.92;;
79574;SDS011;69044;48.198;11.468;2024-03-25T05:03:27;2.67;;;1.75;;
79574;SDS011;69044;48.198;11.468;2024-03-25T05:05:54;3.70;;;1.77;;
79574;SDS011;69044;48.198;11.468;2024-03-25T05:08:20;5.32;;;1.70;;
79574;SDS011;69044;48.198;11.468;2024-03-25T05:10:46;4.43;;;1.80;;
79574;SDS011;69044;48.198;11.468;2024-03-25T05:13:13;3.03;;;1.65;;
79574;SDS011;69044;48.198;11.468;2024-03-25T05:15:39;2.60;;;1.70;;
79574;SDS011;69044;48.198;11.468;2024-03-25T05:18:06;3.13;;;2.00;;
79574;SDS011;69044;48.198;11.468;2024-03-25T05:20:33;4.50;;;1.85;;
79574;SDS011;69044;48.198;11.468;2024-03-25T05:22:59;3.70;;;1.77;;
79574;SDS011;69044;48.198;11.468;2024-03-25T05:25:25;3.05;;;1.80;;
79574;SDS011;69044;48.198;11.468;2024-03-25T05:27:51;9.80;;;3.22;;
79574;SDS011;69044;48.198;11.468;2024-03-25T05:30:17;4.78;;;2.17;;
79574;SDS011;69044;48.198;11.468;2024-03-25T05:32:43;6.50;;;2.05;;
79574;SDS011;69044;48.198;11.468;2024-03-25T05:35:11;3.53;;;1.63;;
79574;SDS011;69044;48.198;11.468;2024-03-25T05:37:37;3.60;;;1.95;;
79574;SDS011;69044;48.198;11.468;2024-03-25T05:40:04;3.42;;;1.70;;
79574;SDS011;69044;48.198;11.468;2024-03-25T05:42:31;2.92;;;1.90;;
79574;SDS011;69044;48.198;11.468;2024-03-25T05:44:57;3.95;;;1.83;;
79574;SDS011;69044;48.198;11.468;2024-03-25T05:47:23;3.05;;;1.75;;
79574;SDS011;69044;48.198;11.468;2024-03-25T05:49:49;5.70;;;1.83;;
79574;SDS011;69044;48.198;11.468;2024-03-25T05:52:17;3.78;;;1.63;;
79574;SDS011;69044;48.198;11.468;2024-03-25T05:54:43;2.60;;;1.70;;
79574;SDS011;69044;48.198;11.468;2024-03-25T05:57:10;4.82;;;1.92;;
79574;SDS011;69044;48.198;11.468;2024-03-25T05:59:36;3.38;;;1.73;;
79574;SDS011;69044;48.198;11.468;2024-03-25T06:02:02;4.47;;;1.67;;
79574;SDS011;69044;48.198;11.468;2024-03-25T06:04:28;3.60;;;1.80;;
79574;SDS011;69044;48.198;11.468;2024-03-25T06:06:55;4.65;;;1.77;;
79574;SDS011;69044;48.198;11.468;2024-03-25T06:09:22;8.93;;;2.75;;
79574;SDS011;69044;48.198;11.468;2024-03-25T06:11:48;4.53;;;2.15;;
79574;SDS011;69044;48.198;11.468;2024-03-25T06:14:14;3.67;;;1.90;;
79574;SDS011;69044;48.198;11.468;2024-03-25T06:16:41;3.88;;;1.70;;
79574;SDS011;69044;48.198;11.468;2024-03-25T06:19:07;2.47;;;1.63;;
79574;SDS011;69044;48.198;11.468;2024-03-25T06:21:33;3.08;;;1.75;;
79574;SDS011;69044;48.198;11.468;2024-03-25T06:23:59;3.55;;;2.00;;
79574;SDS011;69044;48.198;11.468;2024-03-25T06:26:27;4.07;;;1.70;;
79574;SDS011;69044;48.198;11.468;2024-03-25T06:28:53;3.88;;;1.70;;
79574;SDS011;69044;48.198;11.468;2024-03-25T06:31:20;3.75;;;1.98;;
79574;SDS011;69044;48.198;11.468;2024-03-25T06:34:04;4.07;;;2.10;;
79574;SDS011;69044;48.198;11.468;2024-03-25T06:36:40;4.03;;;1.90;;
79574;SDS011;69044;48.198;11.468;2024-03-25T06:39:06;3.28;;;1.65;;
79574;SDS011;69044;48.198;11.468;2024-03-25T06:41:34;3.95;;;1.75;;
79574;SDS011;69044;48.198;11.468;2024-03-25T06:44:00;2.58;;;1.60;;
79574;SDS011;69044;48.198;11.468;2024-03-25T06:46:26;2.97;;;1.60;;
79574;SDS011;69044;48.198;11.468;2024-03-25T06:48:52;3.45;;;1.63;;
79574;SDS011;69044;48.198;11.468;2024-03-25T06:51:18;3.78;;;1.85;;
79574;SDS011;69044;48.198;11.468;2024-03-25T06:53:45;4.85;;;1.60;;
79574;SDS011;69044;48.198;11.468;2024-03-25T06:56:11;3.47;;;1.90;;
79574;SDS011;69044;48.198;11.468;2024-03-25T06:58:39;4.07;;;2.10;;
79574;SDS011;69044;48.198;11.468;2024-03-25T07:01:06;3.38;;;1.83;;
79574;SDS011;69044;48.198;11.468;2024-03-25T07:03:33;3.60;;;1.67;;
79574;SDS011;69044;48.198;11.468;2024-03-25T07:06:00;3.35;;;1.90;;
79574;SDS011;69044;48.198;11.468;2024-03-25T07:08:27;3.28;;;2.00;;
79574;SDS011;69044;48.198;11.468;2024-03-25T07:10:53;4.13;;;1.63;;
79574;SDS011;69044;48.198;11.468;2024-03-25T07:13:20;4.30;;;1.98;;
79574;SDS011;69044;48.198;11.468;2024-03-25T07:15:48;3.35;;;1.65;;
79574;SDS011;69044;48.198;11.468;2024-03-25T07:18:14;4.15;;;1.70;;
79574;SDS011;69044;48.198;11.468;2024-03-25T07:20:41;4.63;;;1.70;;
79574;SDS011;69044;48.198;11.468;2024-03-25T07:23:08;4.32;;;1.80;;
79574;SDS011;69044;48.198;11.468;2024-03-25T07:25:34;3.63;;;2.00;;
79574;SDS011;69044;48.198;11.468;2024-03-25T07:28:00;4.95;;;1.70;;
79574;SDS011;69044;48.198;11.468;2024-03-25T07:30:26;3.33;;;2.00;;
79574;SDS011;69044;48.198;11.468;2024-03-25T07:32:54;4.40;;;1.88;;
79574;SDS011;69044;48.198;11.468;2024-03-25T07:35:21;3.17;;;1.80;;
79574;SDS011;69044;48.198;11.468;2024-03-25T07:37:47;2.70;;;1.60;;
79574;SDS011;69044;48.198;11.468;2024-03-25T07:40:13;4.88;;;1.90;;
79574;SDS011;69044;48.198;11.468;2024-03-25T07:42:40;2.70;;;1.70;;
79574;SDS011;69044;48.198;11.468;2024-03-25T07:45:06;3.95;;;2.03;;
79574;SDS011;69044;48.198;11.468;2024-03-25T07:47:33;7.90;;;3.08;;
79574;SDS011;69044;48.198;11.468;2024-03-25T07:50:00;5.00;;;2.40;;
79574;SDS011;69044;48.198;11.468;2024-03-25T07:52:27;6.82;;;2.10;;
79574;SDS011;69044;48.198;11.468;2024-03-25T07:54:53;3.58;;;1.92;;
79574;SDS011;69044;48.198;11.468;2024-03-25T07:57:19;5.38;;;1.85;;
79574;SDS011;69044;48.198;11.468;2024-03-25T07:59:45;5.43;;;2.60;;
79574;SDS011;69044;48.198;11.468;2024-03-25T08:02:12;4.22;;;2.15;;
79574;SDS011;69044;48.198;11.468;2024-03-25T08:04:38;6.82;;;2.42;;
79574;SDS011;69044;48.198;11.468;2024-03-25T08:07:06;3.92;;;2.08;;
79574;SDS011;69044;48.198;11.468;2024-03-25T08:09:32;4.68;;;2.25;;
79574;SDS011;69044;48.198;11.468;2024-03-25T08:11:59;6.72;;;2.50;;
79574;SDS011;69044;48.198;11.468;2024-03-25T08:14:25;3.97;;;2.30;;
79574;SDS011;69044;48.198;11.468;2024-03-25T08:16:51;8.48;;;2.40;;
79574;SDS011;69044;48.198;11.468;2024-03-25T08:19:18;5.28;;;2.10;;
79574;SDS011;69044;48.198;11.468;2024-03-25T08:21:44;4.32;;;2.42;;
79574;SDS011;69044;48.198;11.468;2024-03-25T08:24:13;8.23;;;3.03;;
79574;SDS011;69044;48.198;11.468;2024-03-25T08:26:39;5.68;;;2.40;;
79574;SDS011;69044;48.198;11.468;2024-03-25T08:29:06;6.43;;;2.45;;
79574;SDS011;69044;48.198;11.468;2024-03-25T08:31:32;7.03;;;2.80;;
79574;SDS011;69044;48.198;11.468;2024-03-25T08:33:58;5.53;;;2.95;;
79574;SDS011;69044;48.198;11.468;2024-03-25T08:36:24;7.70;;;2.75;;
79574;SDS011;69044;48.198;11.468;2024-03-25T08:38:50;7.63;;;2.95;;
79574;SDS011;69044;48.198;11.468;2024-03-25T08:41:18;7.47;;;2.63;;
79574;SDS011;69044;48.198;11.468;2024-03-25T08:43:44;5.28;;;2.50;;
79574;SDS011;69044;48.198;11.468;2024-03-25T08:46:10;6.28;;;2.72;;
79574;SDS011;69044;48.198;11.468;2024-03-25T08:48:36;8.18;;;2.97;;
79574;SDS011;69044;48.198;11.468;2024-03-25T08:51:03;7.28;;;3.22;;
79574;SDS011;69044;48.198;11.468;2024-03-25T08:53:29;5.82;;;2.20;;
79574;SDS011;69044;48.198;11.468;2024-03-25T08:55:55;6.22;;;2.22;;
79574;SDS011;69044;48.198;11.468;2024-03-25T08:58:23;5.10;;;2.72;;
79574;SDS011;69044;48.198;11.468;2024-03-25T09:00:49;4.28;;;2.38;;
79574;SDS011;69044;48.198;11.468;2024-03-25T09:03:15;4.18;;;2.25;;
79574;SDS011;69044;48.198;11.468;2024-03-25T09:05:42;7.63;;;2.60;;
79574;SDS011;69044;48.198;11.468;2024-03-25T09:08:09;6.45;;;2.75;;
79574;SDS011;69044;48.198;11.468;2024-03-25T09:10:35;7.57;;;2.65;;
79574;SDS011;69044;48.198;11.468;2024-03-25T09:13:19;4.38;;;2.30;;
79574;SDS011;69044;48.198;11.468;2024-03-25T09:15:47;4.65;;;2.40;;
79574;SDS011;69044;48.198;11.468;2024-03-25T09:18:13;4.43;;;2.33;;
79574;SDS011;69044;48.198;11.468;2024-03-25T09:20:39;4.78;;;2.05;;
79574;SDS011;69044;48.198;11.468;2024-03-25T09:23:06;5.53;;;2.35;;
79574;SDS011;69044;48.198;11.468;2024-03-25T09:25:32;3.30;;;1.83;;
79574;SDS011;69044;48.198;11.468;2024-03-25T09:27:58;4.85;;;2.10;;
79574;SDS011;69044;48.198;11.468;2024-03-25T09:30:24;4.50;;;2.20;;
79574;SDS011;69044;48.198;11.468;2024-03-25T09:32:52;4.38;;;1.90;;
79574;SDS011;69044;48.198;11.468;2024-03-25T09:35:18;3.67;;;2.08;;
79574;SDS011;69044;48.198;11.468;2024-03-25T09:37:44;4.15;;;1.70;;
79574;SDS011;69044;48.198;11.468;2024-03-25T09:40:11;3.30;;;2.10;;
79574;SDS011;69044;48.198;11.468;2024-03-25T09:42:40;3.72;;;2.08;;
79574;SDS011;69044;48.198;11.468;2024-03-25T09:45:08;3.08;;;1.80;;
79574;SDS011;69044;48.198;11.468;2024-03-25T09:47:35;4.97;;;1.95;;
79574;SDS011;69044;48.198;11.468;2024-03-25T09:50:03;3.63;;;1.55;;
79574;SDS011;69044;48.198;11.468;2024-03-25T09:52:30;3.35;;;1.70;;
79574;SDS011;69044;48.198;11.468;2024-03-25T09:54:57;3.88;;;1.65;;
79574;SDS011;69044;48.198;11.468;2024-03-25T09:57:23;5.03;;;1.80;;
79574;SDS011;69044;48.198;11.468;2024-03-25T09:59:49;6.10;;;1.85;;
79574;SDS011;69044;48.198;11.468;2024-03-25T10:02:16;2.65;;;1.55;;
79574;SDS011;69044;48.198;11.468;2024-03-25T10:04:44;4.47;;;2.05;;
79574;SDS011;69044;48.198;11.468;2024-03-25T10:07:12;3.28;;;1.70;;
79574;SDS011;69044;48.198;11.468;2024-03-25T10:09:47;2.47;;;1.60;;
79574;SDS011;69044;48.198;11.468;2024-03-25T10:12:14;7.32;;;1.90;;
79574;SDS011;69044;48.198;11.468;2024-03-25T10:14:40;3.30;;;1.80;;
79574;SDS011;69044;48.198;11.468;2024-03-25T10:17:06;2.70;;;1.52;;
79574;SDS011;69044;48.198;11.468;2024-03-25T10:19:32;3.90;;;1.73;;
79574;SDS011;69044;48.198;11.468;2024-03-25T10:22:05;2.65;;;1.50;;
79574;SDS011;69044;48.198;11.468;2024-03-25T10:24:40;5.40;;;1.70;;
79574;SDS011;69044;48.198;11.468;2024-03-25T10:29:35;2.72;;;1.65;;
79574;SDS011;69044;48.198;11.468;2024-03-25T10:32:01;4.90;;;2.10;;
79574;SDS011;69044;48.198;11.468;2024-03-25T10:34:28;3.35;;;1.50;;
79574;SDS011;69044;48.198;11.468;2024-03-25T10:36:56;3.40;;;1.35;;
79574;SDS011;69044;48.198;11.468;2024-03-25T10:39:24;4.55;;;1.70;;
79574;SDS011;69044;48.198;11.468;2024-03-25T10:41:54;4.60;;;1.60;;
79574;SDS011;69044;48.198;11.468;2024-03-25T10:44:22;4.47;;;1.70;;
79574;SDS011;69044;48.198;11.468;2024-03-25T10:46:49;3.50;;;1.48;;
79574;SDS011;69044;48.198;11.468;2024-03-25T10:49:20;3.85;;;1.52;;
79574;SDS011;69044;48.198;11.468;2024-03-25T10:51:48;3.85;;;1.30;;
79574;SDS011;69044;48.198;11.468;2024-03-25T10:54:15;2.10;;;1.30;;
79574;SDS011;69044;48.198;11.468;2024-03-25T10:56:41;2.17;;;1.40;;
79574;SDS011;69044;48.198;11.468;2024-03-25T10:59:09;3.22;;;1.40;;
79574;SDS011;69044;48.198;11.468;2024-03-25T11:04:02;2.67;;;1.60;;
79574;SDS011;69044;48.198;11.468;2024-03-25T11:06:28;4.57;;;1.52;;
79574;SDS011;69044;48.198;11.468;2024-03-25T11:08:58;2.78;;;1.40;;
79574;SDS011;69044;48.198;11.468;2024-03-25T11:11:30;2.67;;;1.30;;
79574;SDS011;69044;48.198;11.468;2024-03-25T11:13:57;2.85;;;1.48;;
79574;SDS011;69044;48.198;11.468;2024-03-25T11:16:27;3.95;;;1.42;;
79574;SDS011;69044;48.198;11.468;2024-03-25T11:18:55;4.72;;;1.83;;
79574;SDS011;69044;48.198;11.468;2024-03-25T11:21:24;2.63;;;1.50;;
79574;SDS011;69044;48.198;11.468;2024-03-25T11:23:51;3.00;;;1.65;;
79574;SDS011;69044;48.198;11.468;2024-03-25T11:26:18;4.35;;;1.80;;
79574;SDS011;69044;48.198;11.468;2024-03-25T11:28:45;2.75;;;1.40;;
79574;SDS011;69044;48.198;11.468;2024-03-25T11:31:11;3.33;;;1.50;;
79574;SDS011;69044;48.198;11.468;2024-03-25T11:33:39;3.50;;;1.52;;
79574;SDS011;69044;48.198;11.468;2024-03-25T11:36:06;6.97;;;1.80;;
79574;SDS011;69044;48.198;11.468;2024-03-25T11:38:33;3.20;;;1.70;;
79574;SDS011;69044;48.198;11.468;2024-03-25T11:40:59;3.30;;;1.33;;
79574;SDS011;69044;48.198;11.468;2024-03-25T11:43:26;2.47;;;1.45;;
79574;SDS011;69044;48.198;11.468;2024-03-25T11:45:52;2.72;;;1.38;;
79574;SDS011;69044;48.198;11.468;2024-03-25T11:48:19;2.33;;;1.40;;
79574;SDS011;69044;48.198;11.468;2024-03-25T11:50:47;3.40;;;1.45;;
79574;SDS011;69044;48.198;11.468;2024-03-25T11:53:17;2.22;;;1.30;;
79574;SDS011;69044;48.198;11.468;2024-03-25T11:55:45;3.05;;;1.40;;
79574;SDS011;69044;48.198;11.468;2024-03-25T11:58:12;2.50;;;1.38;;
79574;SDS011;69044;48.198;11.468;2024-03-25T12:00:42;3.28;;;1.40;;
79574;SDS011;69044;48.198;11.468;2024-03-25T12:03:09;2.92;;;1.63;;
79574;SDS011;69044;48.198;11.468;2024-03-25T12:05:38;4.47;;;1.60;;
79574;SDS011;69044;48.198;11.468;2024-03-25T12:08:08;3.92;;;1.60;;
79574;SDS011;69044;48.198;11.468;2024-03-25T12:10:34;2.90;;;1.50;;
79574;SDS011;69044;48.198;11.468;2024-03-25T12:13:19;2.92;;;1.48;;
79574;SDS011;69044;48.198;11.468;2024-03-25T12:15:46;2.67;;;1.50;;
79574;SDS011;69044;48.198;11.468;2024-03-25T12:18:13;2.47;;;1.50;;
79574;SDS011;69044;48.198;11.468;2024-03-25T12:20:39;4.85;;;1.80;;
79574;SDS011;69044;48.198;11.468;2024-03-25T12:23:06;3.53;;;1.40;;
79574;SDS011;69044;48.198;11.468;2024-03-25T12:25:33;4.75;;;1.40;;
79574;SDS011;69044;48.198;11.468;2024-03-25T12:28:00;2.35;;;1.40;;
79574;SDS011;69044;48.198;11.468;2024-03-25T12:30:26;2.20;;;1.40;;
79574;SDS011;69044;48.198;11.468;2024-03-25T12:32:52;4.57;;;1.70;;
79574;SDS011;69044;48.198;11.468;2024-03-25T12:35:20;2.53;;;1.30;;
79574;SDS011;69044;48.198;11.468;2024-03-25T12:37:46;4.70;;;1.60;;
79574;SDS011;69044;48.198;11.468;2024-03-25T12:40:24;3.10;;;1.48;;
79574;SDS011;69044;48.198;11.468;2024-03-25T12:42:53;2.90;;;1.70;;
79574;SDS011;69044;48.198;11.468;2024-03-25T12:45:19;3.30;;;1.40;;
79574;SDS011;69044;48.198;11.468;2024-03-25T12:47:45;4.63;;;1.50;;
79574;SDS011;69044;48.198;11.468;2024-03-25T12:50:12;2.00;;;1.30;;
79574;SDS011;69044;48.198;11.468;2024-03-25T12:52:38;2.20;;;1.40;;
79574;SDS011;69044;48.198;11.468;2024-03-25T12:55:04;2.10;;;1.40;;
79574;SDS011;69044;48.198;11.468;2024-03-25T12:57:30;1.88;;;1.17;;
79574;SDS011;69044;48.198;11.468;2024-03-25T12:59:59;2.92;;;1.50;;
79574;SDS011;69044;48.198;11.468;2024-03-25T13:02:25;4.35;;;1.58;;
79574;SDS011;69044;48.198;11.468;2024-03-25T13:04:51;2.42;;;1.42;;
79574;SDS011;69044;48.198;11.468;2024-03-25T13:07:18;3.17;;;1.40;;
79574;SDS011;69044;48.198;11.468;2024-03-25T13:09:44;2.92;;;1.52;;
79574;SDS011;69044;48.198;11.468;2024-03-25T13:12:10;3.17;;;1.50;;
79574;SDS011;69044;48.198;11.468;2024-03-25T13:14:37;3.35;;;1.60;;
79574;SDS011;69044;48.198;11.468;2024-03-25T13:17:04;2.58;;;1.50;;
79574;SDS011;69044;48.198;11.468;2024-03-25T13:19:30;2.20;;;1.27;;
79574;SDS011;69044;48.198;11.468;2024-03-25T13:21:57;3.15;;;1.50;;
79574;SDS011;69044;48.198;11.468;2024-03-25T13:24:23;2.88;;;1.38;;
79574;SDS011;69044;48.198;11.468;2024-03-25T13:26:49;3.00;;;1.38;;
79574;SDS011;69044;48.198;11.468;2024-03-25T13:29:15;3.03;;;1.60;;
79574;SDS011;69044;48.198;11.468;2024-03-25T13:31:41;2.85;;;1.33;;
79574;SDS011;69044;48.198;11.468;2024-03-25T13:34:09;2.80;;;1.50;;
79574;SDS011;69044;48.198;11.468;2024-03-25T13:36:35;3.67;;;1.50;;
79574;SDS011;69044;48.198;11.468;2024-03-25T13:39:01;3.33;;;1.33;;
79574;SDS011;69044;48.198;11.468;2024-03-25T13:41:28;2.35;;;1.55;;
79574;SDS011;69044;48.198;11.468;2024-03-25T13:43:54;3.70;;;1.50;;
79574;SDS011;69044;48.198;11.468;2024-03-25T13:46:20;3.20;;;1.50;;
79574;SDS011;69044;48.198;11.468;2024-03-25T13:48:47;3.00;;;1.55;;
79574;SDS011;69044;48.198;11.468;2024-03-25T13:51:14;2.50;;;1.40;;
79574;SDS011;69044;48.198;11.468;2024-03-25T13:53:40;3.35;;;1.40;;
79574;SDS011;69044;48.198;11.468;2024-03-25T13:56:07;3.45;;;1.40;;
79574;SDS011;69044;48.198;11.468;2024-03-25T13:58:33;3.17;;;1.50;;
79574;SDS011;69044;48.198;11.468;2024-03-25T14:00:59;2.13;;;1.40;;
79574;SDS011;69044;48.198;11.468;2024-03-25T14:03:25;2.08;;;1.40;;
79574;SDS011;69044;48.198;11.468;2024-03-25T14:05:51;3.10;;;1.42;;
79574;SDS011;69044;48.198;11.468;2024-03-25T14:08:19;3.53;;;1.50;;
79574;SDS011;69044;48.198;11.468;2024-03-25T14:10:45;4.15;;;1.50;;
79574;SDS011;69044;48.198;11.468;2024-03-25T14:13:11;2.97;;;1.40;;
79574;SDS011;69044;48.198;11.468;2024-03-25T14:15:38;2.75;;;1.45;;
79574;SDS011;69044;48.198;11.468;2024-03-25T14:18:04;1.75;;;1.20;;
79574;SDS011;69044;48.198;11.468;2024-03-25T14:20:31;3.97;;;1.60;;
79574;SDS011;69044;48.198;11.468;2024-03-25T14:22:57;1.55;;;1.10;;
79574;SDS011;69044;48.198;11.468;2024-03-25T14:25:24;3.72;;;1.50;;
79574;SDS011;69044;48.198;11.468;2024-03-25T14:27:51;2.85;;;1.40;;
79574;SDS011;69044;48.198;11.468;2024-03-25T14:30:18;3.47;;;1.50;;
79574;SDS011;69044;48.198;11.468;2024-03-25T14:32:44;6.07;;;1.60;;
79574;SDS011;69044;48.198;11.468;2024-03-25T14:35:10;2.30;;;1.40;;
79574;SDS011;69044;48.198;11.468;2024-03-25T14:37:36;2.50;;;1.30;;